Time;durP1;ratioP1;P1;durP2;ratioP2;P2;SDS_P1;SDS_P2;PMS_P1;PMS_P2;Temp;Humidity;BMP_temperature;BMP_pressure;BME280_temperature;BME280_humidity;BME280_pressure;Samples;Min_cycle;Max_cycle;Signal;HPM_P1;HPM_P2
2022/08/16 00:00:43;;;;;;;2.43;2.03;;;28.70;59.40;;;;;;5053348;28;20479;-74
2022/08/16 00:03:12;;;;;;;2.23;2.13;;;28.70;59.50;;;;;;5058335;28;20490;-79
2022/08/16 00:05:43;;;;;;;2.97;2.13;;;28.70;59.60;;;;;;5049067;28;20455;-75
2022/08/16 00:08:16;;;;;;;2.97;2.77;;;28.70;59.60;;;;;;5041002;28;20445;-76
2022/08/16 00:11:09;;;;;;;2.00;1.90;;;28.70;59.80;;;;;;5061770;28;20477;-74
2022/08/16 00:13:43;;;;;;;2.50;2.30;;;28.70;60.00;;;;;;5042951;28;20446;-74
2022/08/16 00:16:24;;;;;;;2.67;1.90;;;28.70;59.90;;;;;;5061879;28;20548;-76
2022/08/16 00:19:12;;;;;;;3.00;2.80;;;28.70;60.00;;;;;;5052693;28;20535;-78
2022/08/16 00:21:41;;;;;;;2.90;2.57;;;28.70;60.00;;;;;;5063615;28;20435;-74
2022/08/16 00:24:10;;;;;;;2.53;2.33;;;28.60;60.00;;;;;;5052805;28;20603;-76
2022/08/16 00:26:40;;;;;;;2.97;2.20;;;28.70;60.10;;;;;;5069718;28;20458;-74
2022/08/16 00:29:15;;;;;;;3.57;2.70;;;28.60;60.10;;;;;;5043252;28;20988;-74
2022/08/16 00:31:46;;;;;;;2.43;2.20;;;28.60;60.20;;;;;;5042615;28;20778;-76
2022/08/16 00:34:33;;;;;;;2.40;2.23;;;28.60;60.20;;;;;;5045895;28;20553;-75
2022/08/16 00:37:22;;;;;;;2.10;2.00;;;28.60;60.20;;;;;;5047495;28;20784;-75
2022/08/16 00:40:13;;;;;;;2.57;2.43;;;28.60;60.20;;;;;;5043660;28;20484;-76
2022/08/16 00:43:09;;;;;;;2.87;2.67;;;28.60;60.30;;;;;;5055879;28;20946;-75
2022/08/16 00:45:52;;;;;;;2.07;1.97;;;28.60;60.30;;;;;;5047256;28;20464;-75
2022/08/16 00:48:30;;;;;;;2.07;1.97;;;28.60;60.30;;;;;;5041829;28;20534;-76
2022/08/16 00:51:12;;;;;;;2.80;2.33;;;28.60;60.40;;;;;;5054639;28;20442;-75
2022/08/16 00:53:44;;;;;;;2.80;2.33;;;28.60;60.40;;;;;;5046996;28;20447;-75
2022/08/16 00:56:17;;;;;;;2.87;2.67;;;28.60;60.40;;;;;;5055521;28;20835;-78
2022/08/16 00:59:08;;;;;;;2.33;2.13;;;28.60;60.40;;;;;;5049660;28;20932;-75
2022/08/16 01:01:37;;;;;;;2.30;2.20;;;28.60;60.40;;;;;;5041494;28;20933;-75
2022/08/16 01:04:08;;;;;;;2.33;2.23;;;28.60;60.40;;;;;;5065415;28;20511;-78
2022/08/16 01:06:57;;;;;;;1.90;1.80;;;28.60;60.40;;;;;;5044491;28;20458;-75
2022/08/16 01:09:31;;;;;;;2.33;2.10;;;28.60;60.50;;;;;;5049809;28;20464;-75
2022/08/16 01:12:02;;;;;;;2.50;2.30;;;28.50;60.50;;;;;;5055002;28;20457;-76
2022/08/16 01:14:32;;;;;;;3.23;2.40;;;28.50;60.50;;;;;;5044754;28;20493;-75
2022/08/16 01:17:02;;;;;;;2.37;2.23;;;28.50;60.50;;;;;;5058600;28;21020;-75
2022/08/16 01:19:42;;;;;;;2.37;2.23;;;28.50;60.60;;;;;;5040718;28;20479;-75
2022/08/16 01:22:18;;;;;;;2.23;2.13;;;28.50;60.60;;;;;;5055442;28;20467;-75
2022/08/16 01:25:12;;;;;;;2.17;2.07;;;28.50;60.60;;;;;;5049035;28;20487;-76
2022/08/16 01:27:45;;;;;;;1.93;1.83;;;28.50;60.60;;;;;;5050652;28;20464;-75
2022/08/16 01:30:17;;;;;;;2.23;2.10;;;28.50;60.60;;;;;;5068060;28;20448;-76
2022/08/16 01:32:49;;;;;;;2.77;2.30;;;28.50;60.60;;;;;;5084602;28;20780;-77
2022/08/16 01:35:36;;;;;;;1.97;1.80;;;28.50;60.60;;;;;;5055209;28;20474;-78
2022/08/16 01:38:19;;;;;;;2.30;2.20;;;28.50;60.60;;;;;;5084195;28;21030;-75
2022/08/16 01:40:54;;;;;;;2.13;2.03;;;28.50;60.70;;;;;;5049357;28;20458;-75
2022/08/16 01:43:24;;;;;;;2.00;1.70;;;28.50;60.70;;;;;;5076976;28;20465;-75
2022/08/16 01:45:56;;;;;;;2.23;2.03;;;28.50;60.70;;;;;;5057816;28;20934;-75
2022/08/16 01:48:28;;;;;;;2.60;2.40;;;28.50;60.70;;;;;;5085787;28;21019;-75
2022/08/16 01:50:58;;;;;;;2.60;2.40;;;28.50;60.70;;;;;;5092013;28;20443;-75
2022/08/16 01:53:44;;;;;;;2.00;1.90;;;28.50;60.70;;;;;;5061752;28;20467;-76
2022/08/16 01:56:30;;;;;;;2.63;2.30;;;28.50;60.70;;;;;;5054324;28;20455;-75
2022/08/16 01:59:01;;;;;;;2.30;2.10;;;28.40;60.80;;;;;;5058533;28;20475;-75
2022/08/16 02:01:31;;;;;;;1.83;1.73;;;28.40;60.80;;;;;;5080222;28;20452;-76
2022/08/16 02:04:01;;;;;;;2.70;2.17;;;28.40;60.70;;;;;;5044974;28;20987;-76
2022/08/16 02:06:40;;;;;;;2.40;2.30;;;28.40;60.80;;;;;;5044283;28;20549;-77
2022/08/16 02:09:16;;;;;;;2.00;1.90;;;28.40;60.80;;;;;;5058541;28;20475;-75
2022/08/16 02:11:52;;;;;;;2.53;2.00;;;28.40;60.80;;;;;;5069713;28;20978;-76
2022/08/16 02:14:25;;;;;;;2.03;1.93;;;28.40;60.80;;;;;;5064215;28;20453;-75
2022/08/16 02:16:57;;;;;;;2.33;2.03;;;28.40;60.90;;;;;;5054422;28;20561;-75
2022/08/16 02:19:28;;;;;;;2.50;2.30;;;28.40;60.90;;;;;;5047258;28;20459;-75
2022/08/16 02:22:19;;;;;;;2.33;2.13;;;28.40;61.00;;;;;;5060689;28;20466;-75
2022/08/16 02:25:12;;;;;;;3.47;1.73;;;28.40;60.90;;;;;;5050895;28;20939;-76
2022/08/16 02:27:45;;;;;;;2.10;2.00;;;28.40;60.90;;;;;;5063923;28;20500;-77
2022/08/16 02:30:22;;;;;;;2.20;2.10;;;28.40;61.00;;;;;;5060614;28;20461;-76
2022/08/16 02:33:11;;;;;;;2.37;2.23;;;28.40;60.90;;;;;;5050039;28;21341;-75
2022/08/16 02:35:39;;;;;;;1.83;1.73;;;28.40;60.80;;;;;;5063166;28;20770;-77
2022/08/16 02:38:25;;;;;;;2.03;1.93;;;28.40;60.80;;;;;;5051194;28;20826;-75
2022/08/16 02:40:54;;;;;;;1.90;1.80;;;28.40;60.80;;;;;;5081929;28;20454;-75
2022/08/16 02:43:24;;;;;;;2.63;2.43;;;28.40;60.80;;;;;;5056826;28;20468;-76
2022/08/16 02:45:57;;;;;;;1.83;1.73;;;28.30;60.80;;;;;;5043845;28;20944;-75
2022/08/16 02:48:27;;;;;;;2.13;1.93;;;28.30;60.80;;;;;;5058079;28;20988;-75
2022/08/16 02:51:04;;;;;;;2.10;2.00;;;28.30;60.70;;;;;;5076054;28;20462;-75
2022/08/16 02:53:43;;;;;;;2.33;2.13;;;28.30;60.70;;;;;;5037546;28;20550;-76
2022/08/16 02:56:13;;;;;;;2.23;2.03;;;28.30;60.70;;;;;;5054893;28;20453;-75
2022/08/16 02:58:46;;;;;;;2.80;2.60;;;28.30;60.70;;;;;;5062649;28;20543;-78
2022/08/16 03:01:18;;;;;;;2.43;2.33;;;28.30;60.70;;;;;;5062699;28;20515;-76
2022/08/16 03:04:07;;;;;;;1.70;1.60;;;28.30;60.60;;;;;;5048649;28;20494;-75
2022/08/16 03:06:56;;;;;;;2.00;1.90;;;28.30;60.60;;;;;;5055012;28;20465;-75
2022/08/16 03:09:41;;;;;;;1.83;1.73;;;28.30;60.70;;;;;;5057633;28;20466;-75
2022/08/16 03:12:13;;;;;;;1.93;1.83;;;28.30;60.60;;;;;;5052081;28;20504;-77
2022/08/16 03:14:47;;;;;;;3.67;2.27;;;28.30;60.60;;;;;;5044743;28;20785;-75
2022/08/16 03:17:19;;;;;;;1.90;1.80;;;28.30;60.60;;;;;;5058868;28;20478;-75
2022/08/16 03:19:53;;;;;;;2.00;1.90;;;28.30;60.60;;;;;;5061784;28;20458;-75
2022/08/16 03:22:35;;;;;;;2.03;1.93;;;28.30;60.60;;;;;;5046515;28;20453;-74
2022/08/16 03:25:12;;;;;;;1.90;1.80;;;28.30;60.60;;;;;;5084730;28;20583;-75
2022/08/16 03:27:51;;;;;;;2.33;2.23;;;28.30;60.60;;;;;;5054375;28;20469;-75
2022/08/16 03:30:26;;;;;;;2.00;1.90;;;28.30;60.60;;;;;;5055571;28;20546;-75
2022/08/16 03:33:05;;;;;;;1.67;1.57;;;28.30;60.60;;;;;;5059356;28;20453;-75
2022/08/16 03:35:43;;;;;;;1.80;1.70;;;28.30;60.60;;;;;;5053909;28;20447;-75
2022/08/16 03:38:23;;;;;;;2.20;2.00;;;28.30;60.50;;;;;;5054225;28;20466;-75
2022/08/16 03:41:07;;;;;;;2.10;2.00;;;28.30;60.50;;;;;;5071509;28;20553;-75
2022/08/16 03:43:56;;;;;;;1.80;1.70;;;28.30;60.50;;;;;;5045462;28;20458;-75
2022/08/16 03:46:30;;;;;;;1.80;1.70;;;28.20;60.50;;;;;;5042598;28;20450;-75
2022/08/16 03:49:22;;;;;;;2.13;2.03;;;28.20;60.50;;;;;;5045278;28;20466;-76
2022/08/16 03:52:04;;;;;;;1.90;1.80;;;28.20;60.50;;;;;;5059014;28;20821;-75
2022/08/16 03:54:35;;;;;;;2.10;2.00;;;28.20;60.50;;;;;;5050117;28;20548;-75
2022/08/16 03:57:04;;;;;;;2.10;2.00;;;28.20;60.50;;;;;;5064099;28;20461;-75
2022/08/16 03:59:38;;;;;;;2.00;1.90;;;28.20;60.50;;;;;;5058533;28;20477;-76
2022/08/16 04:02:17;;;;;;;1.70;1.60;;;28.20;60.50;;;;;;5049496;28;20494;-79
2022/08/16 04:04:58;;;;;;;2.10;2.00;;;28.20;60.50;;;;;;5037622;28;20461;-75
2022/08/16 04:07:29;;;;;;;2.13;2.00;;;28.20;60.50;;;;;;5055929;28;20452;-75
2022/08/16 04:10:02;;;;;;;2.20;2.00;;;28.20;60.50;;;;;;5054362;28;20548;-75
2022/08/16 04:12:50;;;;;;;1.80;1.70;;;28.20;60.50;;;;;;5050844;28;20453;-74
2022/08/16 04:15:29;;;;;;;1.90;1.80;;;28.20;60.50;;;;;;5055266;28;20457;-75
2022/08/16 04:18:19;;;;;;;1.60;1.50;;;28.20;60.50;;;;;;5058611;28;21309;-75
2022/08/16 04:20:49;;;;;;;1.80;1.70;;;28.20;60.40;;;;;;5041543;28;20458;-74
2022/08/16 04:23:22;;;;;;;2.20;2.10;;;28.20;60.50;;;;;;5091606;28;20461;-75
2022/08/16 04:25:53;;;;;;;2.03;1.87;;;28.20;60.40;;;;;;5056662;28;20458;-75
2022/08/16 04:28:21;;;;;;;2.00;1.80;;;28.20;60.50;;;;;;5045294;28;20466;-75
2022/08/16 04:31:11;;;;;;;2.07;1.97;;;28.20;60.50;;;;;;5042937;28;20506;-77
2022/08/16 04:33:44;;;;;;;2.20;2.10;;;28.20;60.40;;;;;;5053968;28;20489;-75
2022/08/16 04:36:20;;;;;;;2.10;1.90;;;28.20;60.40;;;;;;5041097;28;20486;-75
2022/08/16 04:38:49;;;;;;;2.07;1.97;;;28.20;60.40;;;;;;5063361;28;20469;-75
2022/08/16 04:41:19;;;;;;;2.13;2.03;;;28.20;60.40;;;;;;5049577;28;20530;-75
2022/08/16 04:44:00;;;;;;;2.20;2.00;;;28.20;60.40;;;;;;5047520;28;20549;-75
2022/08/16 04:46:48;;;;;;;1.93;1.83;;;28.20;60.40;;;;;;5054351;28;20485;-75
2022/08/16 04:49:38;;;;;;;1.80;1.70;;;28.10;60.40;;;;;;5063886;28;20445;-75
2022/08/16 04:52:14;;;;;;;2.20;2.10;;;28.20;60.40;;;;;;5053270;28;20489;-78
2022/08/16 04:55:04;;;;;;;2.10;2.00;;;28.20;60.40;;;;;;5055552;28;20544;-76
2022/08/16 04:57:33;;;;;;;1.77;1.67;;;28.20;60.30;;;;;;5057350;28;20459;-75
2022/08/16 05:00:02;;;;;;;1.80;1.70;;;28.20;60.30;;;;;;5064860;28;20483;-75
2022/08/16 05:02:51;;;;;;;1.90;1.80;;;28.20;60.30;;;;;;5088169;28;20980;-75
2022/08/16 05:05:26;;;;;;;2.10;2.00;;;28.20;60.30;;;;;;5040853;28;20462;-76
2022/08/16 05:08:04;;;;;;;1.90;1.80;;;28.20;60.30;;;;;;5040613;28;20455;-78
2022/08/16 05:10:58;;;;;;;2.40;2.20;;;28.20;60.20;;;;;;5053494;28;20565;-75
2022/08/16 05:13:31;;;;;;;1.90;1.80;;;28.20;60.20;;;;;;5062571;28;20452;-74
2022/08/16 05:16:13;;;;;;;2.17;2.07;;;28.20;60.20;;;;;;5047550;28;20482;-75
2022/08/16 05:18:53;;;;;;;1.50;1.40;;;28.20;60.20;;;;;;5037087;28;20562;-75
2022/08/16 05:21:30;;;;;;;1.57;1.47;;;28.10;60.20;;;;;;5067988;28;20549;-75
2022/08/16 05:24:08;;;;;;;2.13;2.03;;;28.20;60.10;;;;;;5057817;28;20517;-75
2022/08/16 05:26:37;;;;;;;1.63;1.53;;;28.20;60.10;;;;;;5045083;28;20480;-75
2022/08/16 05:29:12;;;;;;;1.83;1.73;;;28.20;60.10;;;;;;5042175;28;20506;-75
2022/08/16 05:31:54;;;;;;;2.00;1.80;;;28.20;60.10;;;;;;5048363;28;20464;-75
2022/08/16 05:34:23;;;;;;;1.87;1.77;;;28.20;60.10;;;;;;5051112;28;20446;-75
2022/08/16 05:36:56;;;;;;;2.23;2.13;;;28.20;60.10;;;;;;5045756;28;20472;-75
2022/08/16 05:39:33;;;;;;;2.60;2.10;;;28.20;60.00;;;;;;5046778;28;20475;-74
2022/08/16 05:42:08;;;;;;;3.87;3.03;;;28.20;60.00;;;;;;5048898;28;20456;-76
2022/08/16 05:44:38;;;;;;;2.93;2.73;;;28.20;59.70;;;;;;5050473;28;20472;-77
2022/08/16 05:47:10;;;;;;;2.97;2.77;;;28.20;59.70;;;;;;5046146;28;20454;-75
2022/08/16 05:49:44;;;;;;;2.50;2.40;;;28.20;59.50;;;;;;5048181;28;20468;-78
2022/08/16 05:52:19;;;;;;;2.80;2.60;;;28.10;59.30;;;;;;5070050;28;20964;-75
2022/08/16 05:54:48;;;;;;;2.97;2.63;;;28.10;59.50;;;;;;5046871;28;20477;-76
2022/08/16 05:57:32;;;;;;;2.63;2.50;;;28.10;59.40;;;;;;5077901;28;20466;-76
2022/08/16 06:00:06;;;;;;;2.13;2.03;;;28.10;59.40;;;;;;5036174;28;20467;-76
2022/08/16 06:02:40;;;;;;;2.13;2.00;;;28.10;59.40;;;;;;5056699;28;20485;-78
2022/08/16 06:05:37;;;;;;;2.07;1.97;;;28.10;59.00;;;;;;5055526;28;20537;-76
2022/08/16 06:08:11;;;;;;;3.30;3.00;;;28.20;58.90;;;;;;5036736;28;20464;-75
2022/08/16 06:11:04;;;;;;;2.27;2.07;;;28.20;58.80;;;;;;5068783;28;20513;-75
2022/08/16 06:13:42;;;;;;;1.90;1.80;;;28.20;58.80;;;;;;5047531;28;20483;-75
2022/08/16 06:16:13;;;;;;;4.60;2.03;;;28.20;58.70;;;;;;5040484;28;20490;-78
2022/08/16 06:18:45;;;;;;;2.10;2.00;;;28.20;58.70;;;;;;5049280;28;20462;-76
2022/08/16 06:21:15;;;;;;;2.30;2.20;;;28.20;58.60;;;;;;5048552;28;20484;-75
2022/08/16 06:23:58;;;;;;;3.10;2.80;;;28.20;58.60;;;;;;5064121;28;20546;-74
2022/08/16 06:26:30;;;;;;;2.60;2.33;;;28.20;58.60;;;;;;5076083;28;20457;-75
2022/08/16 06:29:07;;;;;;;3.63;2.07;;;28.20;58.60;;;;;;5062169;28;20458;-78
2022/08/16 06:31:39;;;;;;;2.37;2.27;;;28.20;58.50;;;;;;5058901;28;20458;-76
2022/08/16 06:34:18;;;;;;;2.70;2.10;;;28.20;58.50;;;;;;5057305;28;20992;-76
2022/08/16 06:37:09;;;;;;;2.20;2.00;;;28.20;58.50;;;;;;5044180;28;20481;-75
2022/08/16 06:39:40;;;;;;;2.33;2.10;;;28.30;58.50;;;;;;5048396;28;20496;-75
2022/08/16 06:42:34;;;;;;;2.00;1.90;;;28.30;58.50;;;;;;5042212;28;20467;-75
2022/08/16 06:45:43;;;;;;;1.97;1.83;;;28.30;58.40;;;;;;5051884;28;20548;-78
2022/08/16 06:48:20;;;;;;;2.37;2.17;;;28.30;58.40;;;;;;5048258;28;20665;-76
2022/08/16 06:51:01;;;;;;;2.37;2.20;;;28.30;58.40;;;;;;5049780;28;20541;-75
2022/08/16 06:53:33;;;;;;;2.07;1.97;;;28.30;58.40;;;;;;5048675;28;20466;-75
2022/08/16 06:56:08;;;;;;;2.07;1.97;;;28.30;58.50;;;;;;5047709;28;20490;-77
2022/08/16 06:59:11;;;;;;;4.67;4.27;;;28.30;58.50;;;;;;5049281;28;20539;-75
2022/08/16 07:01:48;;;;;;;2.50;2.23;;;28.30;58.70;;;;;;5069510;28;20500;-75
2022/08/16 07:04:23;;;;;;;2.00;1.90;;;28.30;58.50;;;;;;5052941;28;20506;-75
2022/08/16 07:07:05;;;;;;;2.80;2.60;;;28.30;58.50;;;;;;5049518;28;20462;-75
2022/08/16 07:09:37;;;;;;;2.90;2.50;;;28.30;58.50;;;;;;5050829;28;20488;-80
2022/08/16 07:12:08;;;;;;;2.70;2.50;;;28.30;58.60;;;;;;5041523;28;20491;-76
2022/08/16 07:14:41;;;;;;;2.00;1.90;;;28.30;59.00;;;;;;5046861;28;20507;-75
2022/08/16 07:17:14;;;;;;;2.57;2.40;;;28.30;59.00;;;;;;5050180;28;21166;-77
2022/08/16 07:19:49;;;;;;;2.50;2.30;;;28.30;59.10;;;;;;5048476;28;20479;-77
2022/08/16 07:22:50;;;;;;;2.47;2.33;;;28.30;59.20;;;;;;5050093;28;20755;-75
2022/08/16 07:25:41;;;;;;;2.63;2.43;;;28.40;59.20;;;;;;5057251;28;20448;-76
2022/08/16 07:28:15;;;;;;;2.07;1.90;;;28.40;59.20;;;;;;5083061;28;20462;-77
2022/08/16 07:30:48;;;;;;;4.17;2.83;;;28.40;59.20;;;;;;5072638;28;20455;-78
2022/08/16 07:33:37;;;;;;;3.80;2.60;;;28.40;59.10;;;;;;5035637;28;20502;-73
2022/08/16 07:36:23;;;;;;;6.33;2.47;;;28.50;59.40;;;;;;5047104;28;20501;-76
2022/08/16 07:38:52;;;;;;;2.80;2.27;;;28.50;59.40;;;;;;5040761;28;20496;-76
2022/08/16 07:41:22;;;;;;;3.20;2.70;;;28.50;59.30;;;;;;5041897;28;20818;-74
2022/08/16 07:43:56;;;;;;;2.93;2.30;;;28.50;59.40;;;;;;5075750;28;20464;-75
2022/08/16 07:46:26;;;;;;;2.40;2.20;;;28.50;59.20;;;;;;5038734;28;20465;-75
2022/08/16 07:49:27;;;;;;;2.83;2.63;;;28.60;59.20;;;;;;5050986;28;20458;-75
2022/08/16 07:52:02;;;;;;;5.47;2.27;;;28.60;59.30;;;;;;5054597;28;20456;-76
2022/08/16 07:54:46;;;;;;;3.07;2.77;;;28.60;59.30;;;;;;5067230;28;20521;-74
2022/08/16 07:57:20;;;;;;;2.63;2.10;;;28.60;59.30;;;;;;5047078;28;20437;-74
2022/08/16 07:59:53;;;;;;;3.40;3.20;;;28.60;59.30;;;;;;5039018;28;20473;-76
2022/08/16 08:02:25;;;;;;;2.90;2.70;;;28.60;59.30;;;;;;5070061;28;20492;-76
2022/08/16 08:04:57;;;;;;;5.40;2.57;;;28.70;59.30;;;;;;5071152;28;20471;-75
2022/08/16 08:07:28;;;;;;;2.53;2.43;;;28.70;59.30;;;;;;5046766;28;20478;-75
2022/08/16 08:10:03;;;;;;;3.00;2.80;;;28.70;59.30;;;;;;5044718;28;20459;-77
2022/08/16 08:12:33;;;;;;;2.60;2.40;;;28.70;59.40;;;;;;5071965;28;20549;-77
2022/08/16 08:15:17;;;;;;;2.80;2.60;;;28.70;59.30;;;;;;5046617;28;20457;-76
2022/08/16 08:17:53;;;;;;;2.30;2.07;;;28.70;59.40;;;;;;5047222;28;20509;-76
2022/08/16 08:20:28;;;;;;;2.93;2.63;;;28.80;59.30;;;;;;5041711;28;20934;-76
2022/08/16 08:23:01;;;;;;;2.83;2.33;;;28.80;59.30;;;;;;5051691;28;20558;-76
2022/08/16 08:25:37;;;;;;;3.10;2.10;;;28.80;59.30;;;;;;5069559;28;20618;-77
2022/08/16 08:28:26;;;;;;;2.57;2.37;;;28.80;59.30;;;;;;5072956;28;20469;-76
2022/08/16 08:31:07;;;;;;;2.30;2.20;;;28.80;59.10;;;;;;5068847;28;20480;-75
2022/08/16 08:33:38;;;;;;;2.40;2.20;;;28.90;59.30;;;;;;5049983;28;20980;-76
2022/08/16 08:36:20;;;;;;;2.57;2.37;;;28.90;59.10;;;;;;5048335;28;20518;-76
2022/08/16 08:38:55;;;;;;;2.50;2.30;;;28.90;59.00;;;;;;5049046;28;20470;-76
2022/08/16 08:41:28;;;;;;;2.10;2.00;;;28.90;59.10;;;;;;5065996;28;20479;-75
2022/08/16 08:43:59;;;;;;;2.70;2.50;;;28.90;59.00;;;;;;5075186;28;20540;-75
2022/08/16 08:46:49;;;;;;;2.30;2.10;;;28.90;59.00;;;;;;5044530;28;20451;-72
2022/08/16 08:49:28;;;;;;;2.20;2.10;;;29.00;59.10;;;;;;5052190;28;20573;-76
2022/08/16 08:52:17;;;;;;;2.43;2.00;;;29.00;59.10;;;;;;5047490;28;20525;-73
2022/08/16 08:55:09;;;;;;;2.37;2.23;;;29.00;59.20;;;;;;5057416;28;20451;-75
2022/08/16 08:57:44;;;;;;;4.07;2.27;;;29.00;59.00;;;;;;5039136;28;20463;-75
2022/08/16 09:00:33;;;;;;;2.77;2.57;;;29.00;58.90;;;;;;5042394;28;20796;-76
2022/08/16 09:03:20;;;;;;;2.50;2.30;;;29.00;58.90;;;;;;5046317;28;20490;-76
2022/08/16 09:05:49;;;;;;;2.47;2.37;;;29.10;58.90;;;;;;5046637;28;20606;-77
2022/08/16 09:08:20;;;;;;;2.33;2.13;;;29.10;58.90;;;;;;5043556;28;20508;-77
2022/08/16 09:10:58;;;;;;;3.30;3.00;;;29.10;58.80;;;;;;5081044;28;20461;-77
2022/08/16 09:13:32;;;;;;;3.03;1.73;;;29.10;59.00;;;;;;5044405;28;20449;-76
2022/08/16 09:16:05;;;;;;;2.40;2.20;;;29.10;58.80;;;;;;5069986;28;20520;-76
2022/08/16 09:18:41;;;;;;;2.20;2.10;;;29.10;58.90;;;;;;5040539;28;20470;-76
2022/08/16 09:21:10;;;;;;;2.23;2.13;;;29.10;58.80;;;;;;5073979;28;20530;-75
2022/08/16 09:23:40;;;;;;;2.23;2.13;;;29.10;58.80;;;;;;5040832;28;20444;-74
2022/08/16 09:26:14;;;;;;;2.40;2.30;;;29.10;59.00;;;;;;5038353;28;20548;-78
2022/08/16 09:29:03;;;;;;;2.03;1.93;;;29.10;58.90;;;;;;5046426;28;20798;-76
2022/08/16 09:31:46;;;;;;;2.20;1.80;;;29.20;58.80;;;;;;5028880;28;20592;-77
2022/08/16 09:34:21;;;;;;;1.80;1.70;;;29.20;58.70;;;;;;5036364;28;20566;-78
2022/08/16 09:36:50;;;;;;;2.40;2.20;;;29.20;58.70;;;;;;5045179;28;20475;-75
2022/08/16 09:39:21;;;;;;;2.30;2.20;;;29.20;58.70;;;;;;5049326;28;20509;-76
2022/08/16 09:41:51;;;;;;;1.97;1.70;;;29.20;58.70;;;;;;5041933;28;20510;-77
2022/08/16 09:44:22;;;;;;;1.90;1.80;;;29.20;58.70;;;;;;5045388;28;20562;-76
2022/08/16 09:47:11;;;;;;;1.93;1.83;;;29.30;58.80;;;;;;5041120;28;20454;-75
2022/08/16 09:49:41;;;;;;;1.80;1.70;;;29.30;58.70;;;;;;5052741;28;20776;-76
2022/08/16 09:52:10;;;;;;;3.70;2.90;;;29.30;58.70;;;;;;5048830;28;20505;-75
2022/08/16 09:54:39;;;;;;;2.30;2.10;;;29.30;58.70;;;;;;5041170;28;20462;-74
2022/08/16 09:57:11;;;;;;;1.93;1.83;;;29.30;58.60;;;;;;5037881;28;20469;-75
2022/08/16 09:59:40;;;;;;;2.30;2.20;;;29.40;58.60;;;;;;5074021;28;20561;-77
2022/08/16 10:02:09;;;;;;;2.50;2.30;;;29.40;58.60;;;;;;5049519;28;20495;-76
2022/08/16 10:04:56;;;;;;;6.83;2.47;;;29.40;58.60;;;;;;5054360;28;20443;-76
2022/08/16 10:07:26;;;;;;;2.57;2.43;;;29.40;58.80;;;;;;5045152;28;20468;-75
2022/08/16 10:10:12;;;;;;;2.00;1.90;;;29.40;58.50;;;;;;5041305;28;20904;-75
2022/08/16 10:15:33;;;;;;;2.20;2.10;;;29.40;58.50;;;;;;5059006;28;20998;-78
2022/08/16 10:18:06;;;;;;;2.67;2.47;;;29.40;58.50;;;;;;5050599;28;20883;-78
2022/08/16 10:20:58;;;;;;;3.47;2.20;;;29.40;58.40;;;;;;5046742;28;20449;-76
2022/08/16 10:23:28;;;;;;;2.53;2.33;;;29.50;58.30;;;;;;5058304;28;20449;-77
2022/08/16 10:25:56;;;;;;;2.00;1.90;;;29.50;58.30;;;;;;5043810;28;21426;-74
2022/08/16 10:28:45;;;;;;;3.00;2.73;;;29.50;58.20;;;;;;5045930;28;20953;-76
2022/08/16 10:31:17;;;;;;;2.67;2.57;;;29.60;58.10;;;;;;5048459;28;20545;-74
2022/08/16 10:34:05;;;;;;;3.00;2.63;;;29.60;58.10;;;;;;5036104;28;20457;-74
2022/08/16 10:36:55;;;;;;;2.20;2.10;;;29.60;58.10;;;;;;5051034;28;20457;-74
2022/08/16 10:39:24;;;;;;;2.30;2.20;;;29.70;58.00;;;;;;5048168;28;20447;-75
2022/08/16 10:41:53;;;;;;;2.30;2.20;;;29.70;57.90;;;;;;5051590;28;20481;-76
2022/08/16 10:44:21;;;;;;;2.30;2.07;;;29.70;58.00;;;;;;5043186;28;20962;-75
2022/08/16 10:46:49;;;;;;;2.40;2.30;;;29.70;57.90;;;;;;5045559;28;20552;-74
2022/08/16 10:49:20;;;;;;;2.47;2.27;;;29.80;58.00;;;;;;5038881;28;20454;-75
2022/08/16 10:51:50;;;;;;;2.57;2.37;;;29.80;57.90;;;;;;5049226;28;20795;-75
2022/08/16 10:54:40;;;;;;;2.53;2.40;;;29.80;57.80;;;;;;5050203;28;20492;-76
2022/08/16 10:57:30;;;;;;;2.40;2.20;;;29.80;57.80;;;;;;5048712;28;20905;-73
2022/08/16 11:00:03;;;;;;;2.13;1.90;;;29.90;57.90;;;;;;5046987;28;20789;-73
2022/08/16 11:02:31;;;;;;;2.43;2.33;;;29.90;57.70;;;;;;5041464;28;20838;-76
2022/08/16 11:05:19;;;;;;;2.87;2.60;;;29.90;57.70;;;;;;5044887;28;20886;-75
2022/08/16 11:07:50;;;;;;;2.20;2.10;;;30.00;57.60;;;;;;5051228;28;20454;-75
2022/08/16 11:10:38;;;;;;;2.30;2.13;;;30.00;57.60;;;;;;5045945;28;20875;-74
2022/08/16 11:13:27;;;;;;;2.03;1.90;;;30.00;57.60;;;;;;5044915;28;20456;-74
2022/08/16 11:16:15;;;;;;;2.60;2.40;;;30.00;57.50;;;;;;5041903;28;20487;-73
2022/08/16 11:19:05;;;;;;;5.20;2.90;;;30.10;56.90;;;;;;5045511;28;21355;-73
2022/08/16 11:21:42;;;;;;;3.60;3.37;;;30.10;56.40;;;;;;5056153;28;20535;-73
2022/08/16 11:24:31;;;;;;;3.67;3.47;;;30.10;56.20;;;;;;5044420;28;20457;-74
2022/08/16 11:27:13;;;;;;;3.47;3.23;;;30.20;56.00;;;;;;5045837;28;20449;-73
2022/08/16 11:29:47;;;;;;;3.40;3.03;;;30.20;56.00;;;;;;5037587;28;20489;-73
2022/08/16 11:32:16;;;;;;;3.53;3.23;;;30.20;55.80;;;;;;5033203;28;20478;-74
2022/08/16 11:34:49;;;;;;;3.90;3.60;;;30.30;55.60;;;;;;5039994;28;20448;-74
2022/08/16 11:37:38;;;;;;;3.57;3.27;;;30.40;55.20;;;;;;5034215;28;20492;-75
2022/08/16 11:40:31;;;;;;;3.50;3.30;;;30.40;55.00;;;;;;5038781;28;20889;-75
2022/08/16 11:43:02;;;;;;;3.23;3.03;;;30.50;54.90;;;;;;5056687;28;20487;-72
2022/08/16 11:45:32;;;;;;;3.00;2.80;;;30.60;54.70;;;;;;5039307;28;20544;-74
2022/08/16 11:48:02;;;;;;;3.83;3.63;;;30.70;54.60;;;;;;5033659;28;20488;-75
2022/08/16 11:50:32;;;;;;;4.27;3.77;;;30.80;54.70;;;;;;5049228;28;20480;-75
2022/08/16 11:53:00;;;;;;;3.57;3.37;;;30.90;54.50;;;;;;5057443;28;20462;-74
2022/08/16 11:55:31;;;;;;;3.63;3.37;;;31.00;54.40;;;;;;5056620;28;20547;-74
2022/08/16 11:58:02;;;;;;;3.67;3.47;;;31.10;54.30;;;;;;5040503;28;20833;-74
2022/08/16 12:00:32;;;;;;;4.03;3.73;;;31.20;54.10;;;;;;5055209;28;20454;-76
2022/08/16 12:03:19;;;;;;;4.00;3.77;;;31.40;53.70;;;;;;5040239;28;20585;-75
2022/08/16 12:06:08;;;;;;;3.90;3.57;;;31.50;53.40;;;;;;5048341;28;20469;-75
2022/08/16 12:08:54;;;;;;;4.53;4.13;;;31.70;53.00;;;;;;5048422;28;20542;-73
2022/08/16 12:11:23;;;;;;;6.93;6.43;;;31.90;52.90;;;;;;5051435;28;20531;-74
2022/08/16 12:13:55;;;;;;;7.80;6.00;;;32.10;52.50;;;;;;5047495;28;20875;-75
2022/08/16 12:16:23;;;;;;;6.53;5.93;;;32.20;52.20;;;;;;5058943;28;20937;-76
2022/08/16 12:18:58;;;;;;;7.27;6.50;;;32.40;52.00;;;;;;5047980;28;20510;-77
2022/08/16 12:21:26;;;;;;;6.37;5.77;;;32.50;51.80;;;;;;5046009;28;21005;-76
2022/08/16 12:24:15;;;;;;;6.80;6.30;;;32.70;51.50;;;;;;5041505;28;20565;-76
2022/08/16 12:26:44;;;;;;;6.80;6.30;;;32.60;51.40;;;;;;5052130;28;21043;-75
2022/08/16 12:29:13;;;;;;;7.67;7.00;;;32.60;51.50;;;;;;5046567;28;20555;-76
2022/08/16 12:31:42;;;;;;;6.57;5.97;;;32.60;51.50;;;;;;5046211;28;20860;-76
2022/08/16 12:34:30;;;;;;;6.47;5.90;;;32.60;51.40;;;;;;5042894;28;20560;-75
2022/08/16 12:37:03;;;;;;;7.60;6.90;;;32.80;51.10;;;;;;5049627;28;20483;-72
2022/08/16 12:39:38;;;;;;;7.13;6.50;;;32.70;51.10;;;;;;5046428;28;20458;-77
2022/08/16 12:42:19;;;;;;;6.83;6.23;;;32.30;51.50;;;;;;5037320;28;20542;-76
2022/08/16 12:44:49;;;;;;;9.50;6.00;;;32.00;52.10;;;;;;5045747;28;20544;-73
2022/08/16 12:50:06;;;;;;;6.13;5.60;;;31.70;52.50;;;;;;5044348;28;20451;-71
2022/08/16 12:52:41;;;;;;;6.70;6.10;;;31.60;52.90;;;;;;5042362;28;20453;-74
2022/08/16 12:55:20;;;;;;;6.57;5.83;;;31.50;53.20;;;;;;5047866;28;20449;-73
2022/08/16 12:57:51;;;;;;;6.07;5.57;;;31.50;53.50;;;;;;5039848;28;20477;-73
2022/08/16 13:00:31;;;;;;;5.57;5.17;;;31.60;53.20;;;;;;5039461;28;20457;-71
2022/08/16 13:03:03;;;;;;;5.97;5.57;;;31.80;53.00;;;;;;5052702;28;20484;-72
2022/08/16 13:05:40;;;;;;;6.50;6.00;;;31.90;52.80;;;;;;5054022;28;20436;-71
2022/08/16 13:08:21;;;;;;;6.53;6.03;;;31.80;53.10;;;;;;5047034;28;20456;-70
2022/08/16 13:10:54;;;;;;;6.03;5.53;;;31.80;53.20;;;;;;5045990;28;20559;-74
2022/08/16 13:13:24;;;;;;;5.47;5.00;;;31.80;53.20;;;;;;5053992;28;20473;-73
2022/08/16 13:15:57;;;;;;;5.70;5.20;;;31.90;53.20;;;;;;5046438;28;20451;-72
2022/08/16 13:18:35;;;;;;;5.10;4.70;;;31.90;53.20;;;;;;5045381;28;20460;-72
2022/08/16 13:21:07;;;;;;;5.10;4.70;;;32.00;53.20;;;;;;5043189;28;20457;-71
2022/08/16 13:23:38;;;;;;;5.43;4.90;;;32.00;53.10;;;;;;5047540;28;20473;-72
2022/08/16 13:26:11;;;;;;;5.17;4.70;;;32.00;53.10;;;;;;5050745;28;20526;-72
2022/08/16 13:28:44;;;;;;;5.50;5.10;;;32.10;53.10;;;;;;5044135;28;20823;-72
2022/08/16 13:31:16;;;;;;;5.20;4.80;;;32.10;53.10;;;;;;5053204;28;20451;-73
2022/08/16 13:33:44;;;;;;;5.60;4.90;;;32.00;53.30;;;;;;5047186;28;20482;-71
2022/08/16 13:36:13;;;;;;;4.87;4.57;;;31.90;53.60;;;;;;5053553;28;20451;-72
2022/08/16 13:39:02;;;;;;;4.97;4.67;;;31.80;53.70;;;;;;5048104;28;20449;-72
2022/08/16 13:41:32;;;;;;;4.73;4.40;;;31.90;53.70;;;;;;5043585;28;20470;-71
2022/08/16 13:44:00;;;;;;;5.00;4.60;;;31.80;53.90;;;;;;5056966;28;20871;-72